createdAt,value
2022-11-30T00:02:25.139Z,101278.25
2022-11-30T00:04:54.438Z,101268.72
2022-11-30T00:07:23.985Z,101274.94
2022-11-30T00:09:54.786Z,101285.09
2022-11-30T00:12:24.144Z,101285.72
2022-11-30T00:14:53.402Z,101284.28
2022-11-30T00:17:22.745Z,101274.63
2022-11-30T00:19:52.235Z,101278.00
2022-11-30T00:22:21.547Z,101275.72
2022-11-30T00:24:50.916Z,101281.44
2022-11-30T00:27:21.725Z,101278.88
2022-11-30T00:29:51.032Z,101277.16
2022-11-30T00:32:20.525Z,101276.63
2022-11-30T00:34:49.849Z,101274.88
2022-11-30T00:37:19.215Z,101282.75
2022-11-30T00:39:48.736Z,101262.56
2022-11-30T00:42:18.046Z,101281.63
2022-11-30T00:44:48.896Z,101283.06
2022-11-30T00:47:18.314Z,101288.97
2022-11-30T00:49:47.686Z,101290.28
2022-11-30T00:52:16.996Z,101293.97
2022-11-30T00:54:46.602Z,101292.03
2022-11-30T00:57:16.334Z,101288.47
2022-11-30T00:59:45.591Z,101279.63
2022-11-30T01:02:16.947Z,101283.50
2022-11-30T01:04:46.750Z,101288.19
2022-11-30T01:07:16.415Z,101284.03
2022-11-30T01:09:45.912Z,101288.63
2022-11-30T01:12:15.178Z,101291.97
2022-11-30T01:14:44.657Z,101284.59
2022-11-30T01:17:15.664Z,101288.78
2022-11-30T01:19:44.985Z,101278.31
2022-11-30T01:22:14.256Z,101283.38
2022-11-30T01:24:43.620Z,101285.72
2022-11-30T01:27:12.945Z,101278.78
2022-11-30T01:29:42.221Z,101286.38
2022-11-30T01:32:11.608Z,101286.22
2022-11-30T01:34:42.317Z,101284.66
2022-11-30T01:37:11.688Z,101295.53
2022-11-30T01:39:40.975Z,101291.53
2022-11-30T01:42:16.122Z,101287.69
2022-11-30T01:44:55.566Z,101302.69
2022-11-30T01:47:30.167Z,101300.69
2022-11-30T01:50:05.653Z,101296.41
2022-11-30T01:52:37.750Z,101304.69
2022-11-30T01:55:17.979Z,101309.56
2022-11-30T01:57:50.682Z,101305.81
2022-11-30T02:00:20.883Z,101304.38
2022-11-30T02:02:57.089Z,101308.78
2022-11-30T02:05:28.834Z,101313.53
2022-11-30T02:07:58.652Z,101312.38
2022-11-30T02:10:31.365Z,101306.97
2022-11-30T02:13:28.916Z,101296.41
2022-11-30T02:16:07.881Z,101296.00
2022-11-30T02:18:47.991Z,101301.53
2022-11-30T02:21:23.239Z,101308.25
2022-11-30T02:24:23.384Z,101307.56
2022-11-30T02:27:05.441Z,101306.72
2022-11-30T02:29:41.094Z,101304.00
2022-11-30T02:32:15.716Z,101304.28
2022-11-30T02:34:48.042Z,101299.72
2022-11-30T02:37:18.396Z,101305.44
2022-11-30T02:39:48.326Z,101299.84
2022-11-30T02:42:18.294Z,101306.75
2022-11-30T02:44:51.353Z,101296.22
2022-11-30T02:47:25.924Z,101303.28
2022-11-30T02:50:00.486Z,101306.41
2022-11-30T02:52:31.905Z,101306.88
2022-11-30T02:55:02.407Z,101307.72
2022-11-30T02:57:31.854Z,101306.47
2022-11-30T03:00:07.119Z,101310.63
2022-11-30T03:02:36.627Z,101304.63
2022-11-30T03:05:06.605Z,101300.22
2022-11-30T03:07:36.357Z,101311.22
2022-11-30T03:10:07.282Z,101307.81
2022-11-30T03:12:36.564Z,101320.97
2022-11-30T03:15:08.037Z,101315.84
2022-11-30T03:17:37.379Z,101314.69
2022-11-30T03:20:08.440Z,101320.25
2022-11-30T03:22:37.688Z,101311.69
2022-11-30T03:25:07.825Z,101317.97
2022-11-30T03:27:37.750Z,101310.53
2022-11-30T03:30:09.984Z,101320.97
2022-11-30T03:32:39.309Z,101315.41
2022-11-30T03:35:09.345Z,101322.22
2022-11-30T03:37:38.625Z,101321.34
2022-11-30T03:40:09.471Z,101322.53
2022-11-30T03:42:38.838Z,101325.81
2022-11-30T03:45:10.287Z,101324.25
2022-11-30T03:47:39.573Z,101320.38
2022-11-30T03:50:11.336Z,101326.75
2022-11-30T03:52:40.622Z,101329.78
2022-11-30T03:55:10.573Z,101314.81
2022-11-30T03:57:39.825Z,101326.38
2022-11-30T04:00:12.493Z,101329.47
2022-11-30T04:02:44.844Z,101324.78
2022-11-30T04:05:14.745Z,101325.19
2022-11-30T04:07:44.087Z,101328.16
2022-11-30T04:10:13.725Z,101335.03
2022-11-30T04:12:43.053Z,101336.72
2022-11-30T04:15:14.107Z,101342.13
2022-11-30T04:17:43.448Z,101336.28
2022-11-30T04:20:13.083Z,101330.03
2022-11-30T04:22:42.466Z,101330.19
2022-11-30T04:25:11.755Z,101331.75
2022-11-30T04:27:41.217Z,101333.00
2022-11-30T04:30:11.733Z,101324.22
2022-11-30T04:32:42.765Z,101333.28
2022-11-30T04:35:12.467Z,101336.00
2022-11-30T04:37:41.813Z,101338.88
2022-11-30T04:40:11.811Z,101331.03
2022-11-30T04:42:42.165Z,101336.44
2022-11-30T04:45:12.587Z,101334.47
2022-11-30T04:47:43.314Z,101339.00
2022-11-30T04:50:12.745Z,101339.00
2022-11-30T04:52:42.084Z,101343.75
2022-11-30T04:55:11.479Z,101342.13
2022-11-30T04:57:41.175Z,101342.84
2022-11-30T05:00:12.779Z,101352.97
2022-11-30T05:02:47.565Z,101343.75
2022-11-30T05:05:22.254Z,101351.97
2022-11-30T05:07:52.221Z,101346.44
2022-11-30T05:10:21.532Z,101349.72
2022-11-30T05:12:51.549Z,101339.75
2022-11-30T05:15:20.945Z,101355.59
2022-11-30T05:17:51.739Z,101347.03
2022-11-30T05:20:21.066Z,101356.41
2022-11-30T05:22:50.490Z,101357.53
2022-11-30T05:25:19.747Z,101350.84
2022-11-30T05:27:49.035Z,101372.22
2022-11-30T05:30:18.739Z,101358.69
2022-11-30T05:32:48.116Z,101369.25
2022-11-30T05:35:19.084Z,101359.13
2022-11-30T05:37:48.395Z,101364.53
2022-11-30T05:40:18.001Z,101362.13
2022-11-30T05:42:47.315Z,101361.84
2022-11-30T05:45:16.764Z,101364.09
2022-11-30T05:47:46.035Z,101366.41
2022-11-30T05:50:15.374Z,101382.06
2022-11-30T05:52:46.321Z,101374.66
2022-11-30T05:55:15.613Z,101374.09
2022-11-30T05:57:44.904Z,101384.94
2022-11-30T06:00:15.495Z,101386.34
2022-11-30T06:02:45.051Z,101385.22
2022-11-30T06:05:14.979Z,101390.47
2022-11-30T06:07:45.790Z,101385.06
2022-11-30T06:10:15.184Z,101381.78
2022-11-30T06:12:44.718Z,101387.75
2022-11-30T06:15:14.026Z,101384.09
2022-11-30T06:17:43.288Z,101380.94
2022-11-30T06:20:13.586Z,101384.75
2022-11-30T06:22:48.187Z,101384.09
2022-11-30T06:25:17.641Z,101388.66
2022-11-30T06:27:46.925Z,101387.47
2022-11-30T06:30:16.867Z,101391.91
2022-11-30T06:32:47.075Z,101396.91
2022-11-30T06:35:16.642Z,101388.38
2022-11-30T06:37:47.577Z,101404.19
2022-11-30T06:40:17.274Z,101407.91
2022-11-30T06:42:46.513Z,101408.31
2022-11-30T06:45:15.937Z,101415.47
2022-11-30T06:47:45.224Z,101416.03
2022-11-30T06:50:15.385Z,101415.19
2022-11-30T06:52:44.724Z,101416.03
2022-11-30T06:55:15.544Z,101418.19
2022-11-30T06:57:45.198Z,101424.28
2022-11-30T07:00:15.827Z,101424.00
2022-11-30T07:02:45.064Z,101429.00
2022-11-30T07:05:14.295Z,101430.13
2022-11-30T07:07:43.592Z,101418.88
2022-11-30T07:10:19.814Z,101423.44
2022-11-30T07:12:49.458Z,101424.00
2022-11-30T07:15:19.264Z,101422.41
2022-11-30T07:17:48.595Z,101424.56
2022-11-30T07:20:17.977Z,101433.97
2022-11-30T07:22:47.285Z,101428.41
2022-11-30T07:25:35.294Z,101433.25
2022-11-30T07:28:04.572Z,101433.41
2022-11-30T07:30:33.935Z,101432.00
2022-11-30T07:33:03.202Z,101441.66
2022-11-30T07:35:33.039Z,101446.41
2022-11-30T07:38:08.238Z,101435.13
2022-11-30T07:40:40.403Z,101449.53
2022-11-30T07:43:09.682Z,101440.41
2022-11-30T07:45:38.988Z,101450.25
2022-11-30T07:48:09.956Z,101451.94
2022-11-30T07:50:39.292Z,101454.53
2022-11-30T07:53:08.775Z,101448.94
2022-11-30T07:55:39.654Z,101457.81
2022-11-30T07:58:14.273Z,101456.22
2022-11-30T08:00:46.690Z,101450.22
2022-11-30T08:03:16.105Z,101464.91
2022-11-30T08:05:45.398Z,101474.63
2022-11-30T08:08:14.700Z,101471.34
2022-11-30T08:10:45.404Z,101475.47
2022-11-30T08:13:14.756Z,101472.91
2022-11-30T08:15:44.455Z,101470.22
2022-11-30T08:18:14.073Z,101468.19
2022-11-30T08:20:48.444Z,101475.19
2022-11-30T08:23:19.376Z,101474.75
2022-11-30T08:25:50.095Z,101473.50
2022-11-30T08:28:19.408Z,101476.75
2022-11-30T08:30:49.346Z,101475.34
2022-11-30T08:33:18.703Z,101479.56
2022-11-30T08:35:47.975Z,101478.47
2022-11-30T08:38:17.358Z,101485.72
2022-11-30T08:40:46.703Z,101484.72
2022-11-30T08:43:18.302Z,101481.28
2022-11-30T08:45:50.373Z,101482.13
2022-11-30T08:48:23.547Z,101486.41
2022-11-30T08:50:53.000Z,101491.81
2022-11-30T08:53:22.404Z,101492.50
2022-11-30T08:55:58.047Z,101500.91
2022-11-30T08:58:31.087Z,101504.19
2022-11-30T09:01:07.920Z,101501.78
2022-11-30T09:03:37.625Z,101495.94
2022-11-30T09:06:09.013Z,101510.91
2022-11-30T09:08:41.011Z,101514.63
2022-11-30T09:11:12.405Z,101501.94
2022-11-30T09:13:44.029Z,101500.66
2022-11-30T09:16:14.507Z,101508.66
2022-11-30T09:18:44.315Z,101523.44
2022-11-30T09:21:15.137Z,101519.88
2022-11-30T09:23:44.427Z,101518.75
2022-11-30T09:26:16.385Z,101525.44
2022-11-30T09:28:48.309Z,101529.44
2022-11-30T09:31:20.127Z,101530.41
2022-11-30T09:33:50.337Z,101525.16
2022-11-30T09:36:21.255Z,101535.53
2022-11-30T09:38:50.889Z,101525.13
2022-11-30T09:41:40.169Z,101517.41
2022-11-30T09:44:21.693Z,101525.25
2022-11-30T09:46:55.446Z,101522.97
2022-11-30T09:49:29.096Z,101534.81
2022-11-30T09:52:04.435Z,101529.38
2022-11-30T09:54:38.115Z,101535.06
2022-11-30T09:57:27.557Z,101538.19
2022-11-30T10:00:00.248Z,101529.66
2022-11-30T10:02:33.817Z,101532.66
2022-11-30T10:05:03.812Z,101519.66
2022-11-30T10:07:49.470Z,101533.53
2022-11-30T10:10:33.170Z,101535.22
2022-11-30T10:13:18.245Z,101517.53
2022-11-30T10:16:03.034Z,101531.66
2022-11-30T10:18:46.795Z,101538.66
2022-11-30T10:21:32.310Z,101537.09
2022-11-30T10:24:17.490Z,101524.94
2022-11-30T10:26:55.772Z,101537.09
2022-11-30T10:29:31.991Z,101541.91
2022-11-30T10:32:12.186Z,101531.38
2022-11-30T10:34:44.714Z,101531.63
2022-11-30T10:37:18.716Z,101534.78
2022-11-30T10:39:59.673Z,101534.22
2022-11-30T10:42:34.280Z,101529.41
2022-11-30T10:45:09.477Z,101534.53
2022-11-30T10:47:47.954Z,101532.78
2022-11-30T10:50:19.036Z,101535.38
2022-11-30T10:52:52.562Z,101531.38
2022-11-30T10:55:24.793Z,101529.13
2022-11-30T10:58:00.628Z,101521.00
2022-11-30T11:00:30.076Z,101531.94
2022-11-30T11:03:01.154Z,101525.25
2022-11-30T11:05:32.161Z,101529.69
2022-11-30T11:08:07.112Z,101525.69
2022-11-30T11:10:44.278Z,101519.44
2022-11-30T11:13:18.083Z,101521.13
2022-11-30T11:15:59.411Z,101525.72
2022-11-30T11:18:31.417Z,101529.00
2022-11-30T11:21:07.316Z,101528.44
2022-11-30T11:23:39.366Z,101536.84
2022-11-30T11:26:17.367Z,101530.25
2022-11-30T11:28:50.230Z,101530.84
2022-11-30T11:31:35.821Z,101530.84
2022-11-30T11:34:24.065Z,101523.31
2022-11-30T11:37:08.775Z,101518.91
2022-11-30T11:39:38.214Z,101531.75
2022-11-30T11:42:19.073Z,101533.59
2022-11-30T11:44:52.843Z,101526.28
2022-11-30T11:47:26.845Z,101535.69
2022-11-30T11:51:04.324Z,101544.81
2022-11-30T11:53:26.393Z,101540.41
2022-11-30T11:56:00.784Z,101535.53
2022-11-30T11:58:39.936Z,101538.13
2022-11-30T12:01:39.291Z,101538.41
2022-11-30T12:04:29.241Z,101540.56
2022-11-30T12:07:03.937Z,101539.41
2022-11-30T12:09:38.037Z,101543.28
2022-11-30T12:12:12.287Z,101543.66
2022-11-30T12:14:41.728Z,101544.78
2022-11-30T12:17:28.241Z,101554.72
2022-11-30T12:20:05.026Z,101549.47
2022-11-30T12:22:52.086Z,101553.50
2022-11-30T12:25:26.934Z,101559.84
2022-11-30T12:28:08.506Z,101550.03
2022-11-30T12:30:47.893Z,101556.44
2022-11-30T12:33:26.220Z,101557.16
2022-11-30T12:36:04.026Z,101554.72
2022-11-30T12:38:50.810Z,101563.00
2022-11-30T12:41:32.535Z,101550.41
2022-11-30T12:44:22.496Z,101554.97
2022-11-30T12:46:57.825Z,101554.66
2022-11-30T12:49:40.435Z,101561.22
2022-11-30T12:52:27.276Z,101564.94
2022-11-30T12:55:11.765Z,101557.81
2022-11-30T12:57:48.867Z,101557.53
2022-11-30T13:00:21.927Z,101557.97
2022-11-30T13:03:35.315Z,101552.94
2022-11-30T13:06:11.419Z,101557.34
2022-11-30T13:08:50.818Z,101561.94
2022-11-30T13:11:27.177Z,101557.09
2022-11-30T13:13:58.988Z,101557.81
2022-11-30T13:16:31.298Z,101567.50
2022-11-30T13:19:11.264Z,101564.63
2022-11-30T13:21:50.614Z,101567.16
2022-11-30T13:24:29.083Z,101551.75
2022-11-30T13:27:07.816Z,101565.56
2022-11-30T13:29:53.493Z,101567.16
2022-11-30T13:32:56.262Z,101574.53
2022-11-30T13:35:43.694Z,101579.69
2022-11-30T13:41:10.207Z,101581.06
2022-11-30T13:43:47.757Z,101585.03
2022-11-30T13:46:21.968Z,101581.34
2022-11-30T13:49:10.189Z,101576.78
2022-11-30T13:51:42.436Z,101584.91
2022-11-30T13:54:38.763Z,101585.78
2022-11-30T13:57:19.654Z,101586.03
2022-11-30T13:59:52.828Z,101578.91
2022-11-30T14:02:59.300Z,101583.94
2022-11-30T14:05:39.145Z,101566.50
2022-11-30T14:08:32.310Z,101583.88
2022-11-30T14:11:42.507Z,101581.59
2022-11-30T14:14:45.887Z,101589.03
2022-11-30T14:17:20.893Z,101589.44
2022-11-30T14:19:53.316Z,101588.91
2022-11-30T14:22:23.345Z,101591.88
2022-11-30T14:24:52.914Z,101586.47
2022-11-30T14:27:26.233Z,101593.31
2022-11-30T14:30:01.975Z,101601.44
2022-11-30T14:32:39.216Z,101588.19
2022-11-30T14:35:13.207Z,101593.78
2022-11-30T14:37:46.229Z,101592.53
2022-11-30T14:40:19.272Z,101587.09
2022-11-30T14:42:51.319Z,101595.41
2022-11-30T14:45:26.753Z,101587.09
2022-11-30T14:48:07.645Z,101596.06
2022-11-30T14:50:38.827Z,101603.88
2022-11-30T14:53:19.387Z,101601.38
2022-11-30T14:55:53.955Z,101605.88
2022-11-30T14:58:32.558Z,101603.81
2022-11-30T15:01:05.124Z,101605.88
2022-11-30T15:03:40.652Z,101605.88
2022-11-30T15:06:10.430Z,101609.81
2022-11-30T15:08:43.521Z,101619.19
2022-11-30T15:11:16.419Z,101618.94
2022-11-30T15:13:49.464Z,101605.69
2022-11-30T15:16:22.264Z,101615.22
2022-11-30T15:18:54.464Z,101602.97
2022-11-30T15:21:25.639Z,101609.22
2022-11-30T15:23:56.810Z,101619.94
2022-11-30T15:26:30.547Z,101610.13
2022-11-30T15:29:03.637Z,101619.78
2022-11-30T15:31:37.028Z,101612.34
2022-11-30T15:34:18.271Z,101622.38
2022-11-30T15:36:48.781Z,101616.97
2022-11-30T15:39:23.556Z,101619.00
2022-11-30T15:41:56.101Z,101619.41
2022-11-30T15:44:27.192Z,101614.69
2022-11-30T15:46:59.524Z,101624.22
2022-11-30T15:49:31.744Z,101610.38
2022-11-30T15:52:04.915Z,101625.94
2022-11-30T15:54:48.085Z,101629.97
2022-11-30T15:57:18.387Z,101629.81
2022-11-30T16:00:07.465Z,101632.34
2022-11-30T16:02:38.782Z,101634.31
2022-11-30T16:05:25.283Z,101628.31
2022-11-30T16:07:57.470Z,101639.31
2022-11-30T16:10:30.283Z,101640.19
2022-11-30T16:12:59.672Z,101635.75
2022-11-30T16:15:31.344Z,101642.44
2022-11-30T16:18:02.524Z,101641.94
2022-11-30T16:20:33.834Z,101643.09
2022-11-30T16:23:05.926Z,101649.38
2022-11-30T16:25:35.633Z,101645.81
2022-11-30T16:28:05.134Z,101654.09
2022-11-30T16:30:34.452Z,101652.06
2022-11-30T16:33:03.984Z,101665.25
2022-11-30T16:35:39.678Z,101657.16
2022-11-30T16:38:09.103Z,101667.63
2022-11-30T16:40:39.209Z,101666.63
2022-11-30T16:43:11.524Z,101656.69
2022-11-30T16:45:41.920Z,101656.16
2022-11-30T16:48:11.365Z,101647.56
2022-11-30T16:50:42.366Z,101652.38
2022-11-30T16:53:15.103Z,101640.78
2022-11-30T16:55:44.705Z,101658.78
2022-11-30T16:58:14.073Z,101665.63
2022-11-30T17:00:43.455Z,101666.50
2022-11-30T17:03:19.929Z,101663.78
2022-11-30T17:05:50.745Z,101670.34
2022-11-30T17:08:20.104Z,101671.44
2022-11-30T17:10:53.005Z,101658.31
2022-11-30T17:13:22.818Z,101671.44
2022-11-30T17:15:52.155Z,101676.06
2022-11-30T17:18:21.561Z,101677.25
2022-11-30T17:20:54.411Z,101679.56
2022-11-30T17:23:24.843Z,101676.06
2022-11-30T17:25:56.345Z,101685.16
2022-11-30T17:28:26.266Z,101691.97
2022-11-30T17:30:57.517Z,101684.22
2022-11-30T17:33:32.785Z,101689.31
2022-11-30T17:36:06.644Z,101689.19
2022-11-30T17:38:37.456Z,101690.63
2022-11-30T17:41:07.564Z,101705.25
2022-11-30T17:43:38.227Z,101691.91
2022-11-30T17:46:09.036Z,101698.66
2022-11-30T17:48:38.621Z,101700.00
2022-11-30T17:51:10.935Z,101701.63
2022-11-30T17:53:40.624Z,101707.53
2022-11-30T17:56:12.230Z,101714.28
2022-11-30T17:58:44.013Z,101714.28
2022-11-30T18:01:18.508Z,101690.47
2022-11-30T18:03:48.391Z,101708.22
2022-11-30T18:06:19.620Z,101719.19
2022-11-30T18:08:49.196Z,101712.03
2022-11-30T18:11:21.176Z,101713.19
2022-11-30T18:13:51.886Z,101707.63
2022-11-30T18:16:24.287Z,101725.19
2022-11-30T18:18:54.278Z,101717.34
2022-11-30T18:21:27.033Z,101715.88
2022-11-30T18:23:56.775Z,101722.25
2022-11-30T18:26:28.137Z,101721.81
2022-11-30T18:28:58.994Z,101716.50
2022-11-30T18:31:29.463Z,101711.50
2022-11-30T18:34:00.522Z,101729.50
2022-11-30T18:36:31.817Z,101736.13
2022-11-30T18:39:01.414Z,101730.72
2022-11-30T18:41:31.573Z,101736.38
2022-11-30T18:44:00.954Z,101741.06
2022-11-30T18:46:31.283Z,101740.56
2022-11-30T18:49:01.835Z,101743.38
2022-11-30T18:51:32.876Z,101751.72
2022-11-30T18:54:04.142Z,101748.19
2022-11-30T18:56:35.425Z,101755.03
2022-11-30T18:59:07.001Z,101751.03
2022-11-30T19:01:37.017Z,101732.97
2022-11-30T19:04:08.457Z,101749.69
2022-11-30T19:06:41.300Z,101749.16
2022-11-30T19:09:13.131Z,101752.00
2022-11-30T19:11:42.808Z,101755.53
2022-11-30T19:14:14.469Z,101753.31
2022-11-30T19:16:44.902Z,101760.09
2022-11-30T19:19:15.597Z,101755.34
2022-11-30T19:21:48.080Z,101763.66
2022-11-30T19:24:18.281Z,101758.50
2022-11-30T19:26:47.835Z,101753.47
2022-11-30T19:29:17.227Z,101761.94
2022-11-30T19:31:46.565Z,101763.19
2022-11-30T19:34:15.933Z,101758.66
2022-11-30T19:36:46.645Z,101765.41
2022-11-30T19:39:16.083Z,101764.91
2022-11-30T19:41:45.617Z,101761.75
2022-11-30T19:44:16.534Z,101770.72
2022-11-30T19:46:46.143Z,101774.00
2022-11-30T19:49:16.151Z,101766.41
2022-11-30T19:51:47.064Z,101765.41
2022-11-30T19:54:16.333Z,101773.78
2022-11-30T19:56:45.685Z,101773.53
2022-11-30T19:59:15.028Z,101773.41
2022-11-30T20:01:44.774Z,101777.06
2022-11-30T20:04:14.222Z,101775.00
2022-11-30T20:06:43.708Z,101768.88
2022-11-30T20:09:14.474Z,101776.72
2022-11-30T20:11:43.977Z,101775.25
2022-11-30T20:14:17.333Z,101776.22
2022-11-30T20:16:46.559Z,101773.53
2022-11-30T20:19:17.329Z,101784.84
2022-11-30T20:21:48.476Z,101791.22
2022-11-30T20:24:19.253Z,101792.84
2022-11-30T20:26:49.249Z,101781.16
2022-11-30T20:29:19.586Z,101791.38
2022-11-30T20:31:50.457Z,101791.47
2022-11-30T20:34:19.820Z,101790.63
2022-11-30T20:36:49.211Z,101787.31
2022-11-30T20:39:19.981Z,101792.59
2022-11-30T20:41:49.353Z,101796.13
2022-11-30T20:44:19.503Z,101793.59
2022-11-30T20:46:48.996Z,101788.91
2022-11-30T20:49:21.538Z,101796.03
2022-11-30T20:51:51.078Z,101791.72
2022-11-30T20:54:24.816Z,101791.88
2022-11-30T20:56:54.162Z,101795.44
2022-11-30T20:59:26.617Z,101785.13
2022-11-30T21:01:57.140Z,101781.81
2022-11-30T21:04:27.266Z,101787.81
2022-11-30T21:06:56.698Z,101787.56
2022-11-30T21:09:27.375Z,101784.88
2022-11-30T21:11:56.629Z,101788.81
2022-11-30T21:14:25.916Z,101794.56
2022-11-30T21:16:55.317Z,101797.13
2022-11-30T21:19:24.624Z,101799.97
2022-11-30T21:21:55.619Z,101799.13
2022-11-30T21:24:26.520Z,101796.13
2022-11-30T21:26:56.360Z,101799.38
2022-11-30T21:29:25.811Z,101797.13
2022-11-30T21:31:55.185Z,101798.00
2022-11-30T21:34:25.548Z,101806.59
2022-11-30T21:36:54.879Z,101801.28
2022-11-30T21:39:24.568Z,101804.53
2022-11-30T21:41:55.761Z,101801.06
2022-11-30T21:44:25.203Z,101796.88
2022-11-30T21:46:54.609Z,101795.28
2022-11-30T21:49:24.103Z,101803.41
2022-11-30T21:51:54.445Z,101796.03
2022-11-30T21:54:23.895Z,101790.72
2022-11-30T21:56:54.571Z,101797.63
2022-11-30T21:59:23.939Z,101785.88
2022-11-30T22:01:53.364Z,101796.53
2022-11-30T22:04:22.760Z,101801.94
2022-11-30T22:06:52.126Z,101802.03
2022-11-30T22:09:21.474Z,101796.03
2022-11-30T22:11:50.763Z,101799.13
2022-11-30T22:14:21.482Z,101801.28
2022-11-30T22:16:50.791Z,101796.03
2022-11-30T22:19:20.163Z,101802.53
2022-11-30T22:21:50.558Z,101794.56
2022-11-30T22:24:20.043Z,101801.69
2022-11-30T22:26:50.240Z,101797.13
2022-11-30T22:29:22.571Z,101795.78
2022-11-30T22:31:54.275Z,101800.34
2022-11-30T22:34:23.709Z,101790.78
2022-11-30T22:36:52.950Z,101802.06
2022-11-30T22:39:23.103Z,101797.63
2022-11-30T22:41:56.141Z,101789.91
2022-11-30T22:44:27.183Z,101796.91
2022-11-30T22:46:56.977Z,101808.44
2022-11-30T22:49:26.542Z,101805.63
2022-11-30T22:51:55.840Z,101792.63
2022-11-30T22:54:25.304Z,101803.88
2022-11-30T22:56:54.511Z,101797.88
2022-11-30T22:59:23.843Z,101804.78
2022-11-30T23:01:54.434Z,101796.41
2022-11-30T23:04:24.003Z,101793.97
2022-11-30T23:06:53.702Z,101799.13
2022-11-30T23:09:24.325Z,101801.72
2022-11-30T23:11:54.073Z,101795.31
2022-11-30T23:14:23.335Z,101793.63
2022-11-30T23:16:54.024Z,101791.88
2022-11-30T23:19:23.381Z,101793.47
2022-11-30T23:21:53.586Z,101782.91
2022-11-30T23:24:24.020Z,101777.50
2022-11-30T23:26:53.296Z,101789.78
2022-11-30T23:29:22.517Z,101784.88
2022-11-30T23:31:51.844Z,101791.72
2022-11-30T23:34:23.517Z,101795.28
2022-11-30T23:36:52.898Z,101797.38
2022-11-30T23:39:22.344Z,101795.69
2022-11-30T23:41:51.659Z,101784.97
2022-11-30T23:44:20.962Z,101796.88
2022-11-30T23:46:50.491Z,101803.63
2022-11-30T23:49:19.827Z,101797.50
2022-11-30T23:51:50.473Z,101793.94
2022-11-30T23:54:19.861Z,101795.38
2022-11-30T23:56:49.061Z,101803.03
2022-11-30T23:59:18.435Z,101797.88
